sensor_id;sensor_type;location;lat;lon;timestamp;P1;durP1;ratioP1;P2;durP2;ratioP2
5981;SDS011;3018;48.730;9.336;2022-11-13T00:00:24;39.75;;;13.85;;
5981;SDS011;3018;48.730;9.336;2022-11-13T00:02:52;15.07;;;12.82;;
5981;SDS011;3018;48.730;9.336;2022-11-13T00:05:18;21.45;;;13.68;;
5981;SDS011;3018;48.730;9.336;2022-11-13T00:07:44;14.80;;;13.05;;
5981;SDS011;3018;48.730;9.336;2022-11-13T00:10:11;32.28;;;12.32;;
5981;SDS011;3018;48.730;9.336;2022-11-13T00:12:37;47.03;;;13.85;;
5981;SDS011;3018;48.730;9.336;2022-11-13T00:15:03;37.92;;;12.27;;
5981;SDS011;3018;48.730;9.336;2022-11-13T00:17:30;30.65;;;12.95;;
5981;SDS011;3018;48.730;9.336;2022-11-13T00:19:58;26.88;;;13.32;;
5981;SDS011;3018;48.730;9.336;2022-11-13T00:22:24;15.88;;;12.98;;
5981;SDS011;3018;48.730;9.336;2022-11-13T00:24:50;16.98;;;13.70;;
5981;SDS011;3018;48.730;9.336;2022-11-13T00:27:16;25.17;;;13.80;;
5981;SDS011;3018;48.730;9.336;2022-11-13T00:29:43;16.70;;;12.50;;
5981;SDS011;3018;48.730;9.336;2022-11-13T00:32:09;15.15;;;11.93;;
5981;SDS011;3018;48.730;9.336;2022-11-13T00:34:35;28.88;;;12.50;;
5981;SDS011;3018;48.730;9.336;2022-11-13T00:37:03;39.65;;;14.02;;
5981;SDS011;3018;48.730;9.336;2022-11-13T00:39:29;18.58;;;13.52;;
5981;SDS011;3018;48.730;9.336;2022-11-13T00:41:56;14.63;;;12.43;;
5981;SDS011;3018;48.730;9.336;2022-11-13T00:44:22;32.22;;;13.35;;
5981;SDS011;3018;48.730;9.336;2022-11-13T00:46:48;29.10;;;13.68;;
5981;SDS011;3018;48.730;9.336;2022-11-13T00:49:14;16.10;;;12.40;;
5981;SDS011;3018;48.730;9.336;2022-11-13T00:51:41;15.93;;;12.65;;
5981;SDS011;3018;48.730;9.336;2022-11-13T00:54:09;16.48;;;11.60;;
5981;SDS011;3018;48.730;9.336;2022-11-13T00:56:35;16.52;;;12.50;;
5981;SDS011;3018;48.730;9.336;2022-11-13T00:59:01;15.10;;;12.40;;
5981;SDS011;3018;48.730;9.336;2022-11-13T01:01:28;27.13;;;11.48;;
5981;SDS011;3018;48.730;9.336;2022-11-13T01:03:54;25.42;;;11.75;;
5981;SDS011;3018;48.730;9.336;2022-11-13T01:06:22;18.80;;;12.02;;
5981;SDS011;3018;48.730;9.336;2022-11-13T01:08:48;13.32;;;11.70;;
5981;SDS011;3018;48.730;9.336;2022-11-13T01:11:17;13.15;;;11.57;;
5981;SDS011;3018;48.730;9.336;2022-11-13T01:13:44;31.27;;;12.05;;
5981;SDS011;3018;48.730;9.336;2022-11-13T01:16:12;14.52;;;12.30;;
5981;SDS011;3018;48.730;9.336;2022-11-13T01:18:39;15.73;;;11.20;;
5981;SDS011;3018;48.730;9.336;2022-11-13T01:21:08;13.48;;;11.13;;
5981;SDS011;3018;48.730;9.336;2022-11-13T01:23:35;12.70;;;11.35;;
5981;SDS011;3018;48.730;9.336;2022-11-13T01:26:05;23.50;;;12.80;;
5981;SDS011;3018;48.730;9.336;2022-11-13T01:28:33;12.18;;;10.88;;
5981;SDS011;3018;48.730;9.336;2022-11-13T01:30:59;12.65;;;11.45;;
5981;SDS011;3018;48.730;9.336;2022-11-13T01:33:26;51.45;;;14.05;;
5981;SDS011;3018;48.730;9.336;2022-11-13T01:35:52;15.70;;;12.23;;
5981;SDS011;3018;48.730;9.336;2022-11-13T01:38:24;171.18;;;16.13;;
5981;SDS011;3018;48.730;9.336;2022-11-13T01:40:50;14.27;;;12.25;;
5981;SDS011;3018;48.730;9.336;2022-11-13T01:43:24;17.55;;;12.10;;
5981;SDS011;3018;48.730;9.336;2022-11-13T01:46:04;30.85;;;13.88;;
5981;SDS011;3018;48.730;9.336;2022-11-13T01:48:31;13.43;;;12.02;;
5981;SDS011;3018;48.730;9.336;2022-11-13T01:50:58;15.18;;;11.63;;
5981;SDS011;3018;48.730;9.336;2022-11-13T01:53:25;24.77;;;12.15;;
5981;SDS011;3018;48.730;9.336;2022-11-13T01:55:51;23.13;;;12.13;;
5981;SDS011;3018;48.730;9.336;2022-11-13T01:58:18;23.42;;;12.73;;
5981;SDS011;3018;48.730;9.336;2022-11-13T02:00:45;83.32;;;13.65;;
5981;SDS011;3018;48.730;9.336;2022-11-13T02:03:12;72.72;;;13.27;;
5981;SDS011;3018;48.730;9.336;2022-11-13T02:05:38;17.42;;;11.85;;
5981;SDS011;3018;48.730;9.336;2022-11-13T02:08:05;12.35;;;11.10;;
5981;SDS011;3018;48.730;9.336;2022-11-13T02:10:31;41.47;;;11.85;;
5981;SDS011;3018;48.730;9.336;2022-11-13T02:12:57;12.90;;;11.23;;
5981;SDS011;3018;48.730;9.336;2022-11-13T02:15:24;17.33;;;11.32;;
5981;SDS011;3018;48.730;9.336;2022-11-13T02:17:51;19.10;;;11.55;;
5981;SDS011;3018;48.730;9.336;2022-11-13T02:20:22;21.02;;;11.43;;
5981;SDS011;3018;48.730;9.336;2022-11-13T02:22:53;11.95;;;10.30;;
5981;SDS011;3018;48.730;9.336;2022-11-13T02:25:21;12.20;;;10.90;;
5981;SDS011;3018;48.730;9.336;2022-11-13T02:27:49;40.15;;;11.20;;
5981;SDS011;3018;48.730;9.336;2022-11-13T02:30:17;11.70;;;10.40;;
5981;SDS011;3018;48.730;9.336;2022-11-13T02:32:45;11.02;;;9.95;;
5981;SDS011;3018;48.730;9.336;2022-11-13T02:35:11;23.88;;;10.30;;
5981;SDS011;3018;48.730;9.336;2022-11-13T02:37:38;9.88;;;9.02;;
5981;SDS011;3018;48.730;9.336;2022-11-13T02:40:05;10.30;;;9.40;;
5981;SDS011;3018;48.730;9.336;2022-11-13T02:42:33;24.75;;;10.48;;
5981;SDS011;3018;48.730;9.336;2022-11-13T02:44:59;12.75;;;10.65;;
5981;SDS011;3018;48.730;9.336;2022-11-13T02:47:26;22.02;;;10.50;;
5981;SDS011;3018;48.730;9.336;2022-11-13T02:49:52;13.68;;;11.07;;
5981;SDS011;3018;48.730;9.336;2022-11-13T02:52:18;20.67;;;9.90;;
5981;SDS011;3018;48.730;9.336;2022-11-13T02:54:45;19.38;;;11.43;;
5981;SDS011;3018;48.730;9.336;2022-11-13T02:57:11;46.75;;;11.80;;
5981;SDS011;3018;48.730;9.336;2022-11-13T02:59:39;11.95;;;10.85;;
5981;SDS011;3018;48.730;9.336;2022-11-13T03:02:05;14.40;;;9.73;;
5981;SDS011;3018;48.730;9.336;2022-11-13T03:04:31;11.57;;;10.38;;
5981;SDS011;3018;48.730;9.336;2022-11-13T03:06:58;16.35;;;10.88;;
5981;SDS011;3018;48.730;9.336;2022-11-13T03:09:24;34.28;;;11.00;;
5981;SDS011;3018;48.730;9.336;2022-11-13T03:11:50;26.25;;;9.65;;
5981;SDS011;3018;48.730;9.336;2022-11-13T03:14:16;10.45;;;9.48;;
5981;SDS011;3018;48.730;9.336;2022-11-13T03:16:44;11.00;;;9.90;;
5981;SDS011;3018;48.730;9.336;2022-11-13T03:19:10;9.95;;;9.15;;
5981;SDS011;3018;48.730;9.336;2022-11-13T03:21:37;47.03;;;10.57;;
5981;SDS011;3018;48.730;9.336;2022-11-13T03:24:03;10.70;;;9.70;;
5981;SDS011;3018;48.730;9.336;2022-11-13T03:26:29;10.35;;;9.35;;
5981;SDS011;3018;48.730;9.336;2022-11-13T03:28:56;9.52;;;8.70;;
5981;SDS011;3018;48.730;9.336;2022-11-13T03:31:22;16.70;;;8.88;;
5981;SDS011;3018;48.730;9.336;2022-11-13T03:33:52;9.27;;;8.40;;
5981;SDS011;3018;48.730;9.336;2022-11-13T03:36:18;9.63;;;8.57;;
5981;SDS011;3018;48.730;9.336;2022-11-13T03:38:45;15.48;;;9.23;;
5981;SDS011;3018;48.730;9.336;2022-11-13T03:41:11;71.35;;;10.50;;
5981;SDS011;3018;48.730;9.336;2022-11-13T03:43:38;33.40;;;10.18;;
5981;SDS011;3018;48.730;9.336;2022-11-13T03:46:05;10.15;;;9.20;;
5981;SDS011;3018;48.730;9.336;2022-11-13T03:48:31;11.07;;;9.25;;
5981;SDS011;3018;48.730;9.336;2022-11-13T03:50:59;11.02;;;9.02;;
5981;SDS011;3018;48.730;9.336;2022-11-13T03:53:26;10.75;;;9.00;;
5981;SDS011;3018;48.730;9.336;2022-11-13T03:55:52;13.45;;;9.52;;
5981;SDS011;3018;48.730;9.336;2022-11-13T03:58:18;34.97;;;9.70;;
5981;SDS011;3018;48.730;9.336;2022-11-13T04:00:45;22.25;;;9.93;;
5981;SDS011;3018;48.730;9.336;2022-11-13T04:03:11;50.72;;;10.00;;
5981;SDS011;3018;48.730;9.336;2022-11-13T04:05:38;21.17;;;9.43;;
5981;SDS011;3018;48.730;9.336;2022-11-13T04:08:06;36.55;;;10.23;;
5981;SDS011;3018;48.730;9.336;2022-11-13T04:10:32;10.63;;;9.52;;
5981;SDS011;3018;48.730;9.336;2022-11-13T04:12:58;9.90;;;8.80;;
5981;SDS011;3018;48.730;9.336;2022-11-13T04:15:24;27.63;;;9.43;;
5981;SDS011;3018;48.730;9.336;2022-11-13T04:17:51;18.05;;;9.07;;
5981;SDS011;3018;48.730;9.336;2022-11-13T04:20:17;19.38;;;9.65;;
5981;SDS011;3018;48.730;9.336;2022-11-13T04:22:43;13.43;;;8.90;;
5981;SDS011;3018;48.730;9.336;2022-11-13T04:25:11;19.13;;;8.93;;
5981;SDS011;3018;48.730;9.336;2022-11-13T04:27:37;8.93;;;8.13;;
5981;SDS011;3018;48.730;9.336;2022-11-13T04:30:04;8.55;;;7.68;;
5981;SDS011;3018;48.730;9.336;2022-11-13T04:32:30;11.48;;;8.35;;
5981;SDS011;3018;48.730;9.336;2022-11-13T04:34:57;52.80;;;8.88;;
5981;SDS011;3018;48.730;9.336;2022-11-13T04:37:23;85.88;;;9.73;;
5981;SDS011;3018;48.730;9.336;2022-11-13T04:39:49;18.85;;;8.00;;
5981;SDS011;3018;48.730;9.336;2022-11-13T04:42:17;9.70;;;7.80;;
5981;SDS011;3018;48.730;9.336;2022-11-13T04:45:01;8.98;;;7.20;;
5981;SDS011;3018;48.730;9.336;2022-11-13T04:47:28;8.90;;;7.78;;
5981;SDS011;3018;48.730;9.336;2022-11-13T04:49:54;26.23;;;7.97;;
5981;SDS011;3018;48.730;9.336;2022-11-13T04:52:20;8.52;;;7.72;;
5981;SDS011;3018;48.730;9.336;2022-11-13T04:54:47;7.68;;;7.13;;
5981;SDS011;3018;48.730;9.336;2022-11-13T04:57:13;49.05;;;7.57;;
5981;SDS011;3018;48.730;9.336;2022-11-13T04:59:41;6.55;;;6.15;;
5981;SDS011;3018;48.730;9.336;2022-11-13T05:02:07;7.57;;;6.88;;
5981;SDS011;3018;48.730;9.336;2022-11-13T05:04:33;7.95;;;7.35;;
5981;SDS011;3018;48.730;9.336;2022-11-13T05:07:00;16.20;;;7.68;;
5981;SDS011;3018;48.730;9.336;2022-11-13T05:09:26;10.45;;;6.82;;
5981;SDS011;3018;48.730;9.336;2022-11-13T05:11:52;16.35;;;7.25;;
5981;SDS011;3018;48.730;9.336;2022-11-13T05:14:18;7.30;;;6.70;;
5981;SDS011;3018;48.730;9.336;2022-11-13T05:16:46;13.77;;;7.45;;
5981;SDS011;3018;48.730;9.336;2022-11-13T05:19:14;7.20;;;6.63;;
5981;SDS011;3018;48.730;9.336;2022-11-13T05:21:40;7.10;;;6.60;;
5981;SDS011;3018;48.730;9.336;2022-11-13T05:24:08;7.68;;;7.10;;
5981;SDS011;3018;48.730;9.336;2022-11-13T05:26:35;9.27;;;6.97;;
5981;SDS011;3018;48.730;9.336;2022-11-13T05:29:01;20.33;;;6.85;;
5981;SDS011;3018;48.730;9.336;2022-11-13T05:31:28;31.38;;;7.53;;
5981;SDS011;3018;48.730;9.336;2022-11-13T05:33:55;10.30;;;7.53;;
5981;SDS011;3018;48.730;9.336;2022-11-13T05:36:22;7.90;;;7.30;;
5981;SDS011;3018;48.730;9.336;2022-11-13T05:38:48;7.32;;;6.68;;
5981;SDS011;3018;48.730;9.336;2022-11-13T05:41:16;8.65;;;7.82;;
5981;SDS011;3018;48.730;9.336;2022-11-13T05:43:43;20.00;;;6.85;;
5981;SDS011;3018;48.730;9.336;2022-11-13T05:46:11;9.30;;;8.40;;
5981;SDS011;3018;48.730;9.336;2022-11-13T05:48:38;8.50;;;7.80;;
5981;SDS011;3018;48.730;9.336;2022-11-13T05:51:07;8.90;;;7.70;;
5981;SDS011;3018;48.730;9.336;2022-11-13T05:53:34;8.50;;;7.72;;
5981;SDS011;3018;48.730;9.336;2022-11-13T05:56:00;11.60;;;8.60;;
5981;SDS011;3018;48.730;9.336;2022-11-13T05:58:27;36.38;;;9.02;;
5981;SDS011;3018;48.730;9.336;2022-11-13T06:01:03;43.20;;;9.50;;
5981;SDS011;3018;48.730;9.336;2022-11-13T06:03:30;31.98;;;9.20;;
5981;SDS011;3018;48.730;9.336;2022-11-13T06:05:56;42.40;;;9.05;;
5981;SDS011;3018;48.730;9.336;2022-11-13T06:08:24;8.40;;;7.70;;
5981;SDS011;3018;48.730;9.336;2022-11-13T06:10:50;12.13;;;8.70;;
5981;SDS011;3018;48.730;9.336;2022-11-13T06:13:17;17.90;;;8.68;;
5981;SDS011;3018;48.730;9.336;2022-11-13T06:15:43;30.58;;;9.20;;
5981;SDS011;3018;48.730;9.336;2022-11-13T06:18:09;9.13;;;8.25;;
5981;SDS011;3018;48.730;9.336;2022-11-13T06:20:35;8.93;;;8.13;;
5981;SDS011;3018;48.730;9.336;2022-11-13T06:23:02;8.38;;;7.45;;
5981;SDS011;3018;48.730;9.336;2022-11-13T06:25:29;9.02;;;8.13;;
5981;SDS011;3018;48.730;9.336;2022-11-13T06:27:56;9.05;;;7.97;;
5981;SDS011;3018;48.730;9.336;2022-11-13T06:30:22;10.65;;;8.88;;
5981;SDS011;3018;48.730;9.336;2022-11-13T06:32:50;24.25;;;9.38;;
5981;SDS011;3018;48.730;9.336;2022-11-13T06:35:17;11.88;;;8.68;;
5981;SDS011;3018;48.730;9.336;2022-11-13T06:37:43;22.33;;;9.10;;
5981;SDS011;3018;48.730;9.336;2022-11-13T06:40:10;15.57;;;8.57;;
5981;SDS011;3018;48.730;9.336;2022-11-13T06:42:37;37.50;;;9.68;;
5981;SDS011;3018;48.730;9.336;2022-11-13T06:45:04;12.18;;;9.43;;
5981;SDS011;3018;48.730;9.336;2022-11-13T06:47:31;9.70;;;8.80;;
5981;SDS011;3018;48.730;9.336;2022-11-13T06:49:57;10.85;;;9.82;;
5981;SDS011;3018;48.730;9.336;2022-11-13T06:52:23;9.63;;;8.35;;
5981;SDS011;3018;48.730;9.336;2022-11-13T06:54:49;10.30;;;8.93;;
5981;SDS011;3018;48.730;9.336;2022-11-13T06:57:16;9.68;;;8.77;;
5981;SDS011;3018;48.730;9.336;2022-11-13T06:59:43;11.55;;;8.32;;
5981;SDS011;3018;48.730;9.336;2022-11-13T07:02:10;18.13;;;8.30;;
5981;SDS011;3018;48.730;9.336;2022-11-13T07:04:36;15.38;;;8.52;;
5981;SDS011;3018;48.730;9.336;2022-11-13T07:07:03;12.95;;;8.27;;
5981;SDS011;3018;48.730;9.336;2022-11-13T07:09:29;15.98;;;9.95;;
5981;SDS011;3018;48.730;9.336;2022-11-13T07:11:55;9.85;;;8.63;;
5981;SDS011;3018;48.730;9.336;2022-11-13T07:14:22;9.93;;;8.98;;
5981;SDS011;3018;48.730;9.336;2022-11-13T07:16:49;49.00;;;10.07;;
5981;SDS011;3018;48.730;9.336;2022-11-13T07:19:16;9.45;;;8.48;;
5981;SDS011;3018;48.730;9.336;2022-11-13T07:21:42;36.72;;;9.20;;
5981;SDS011;3018;48.730;9.336;2022-11-13T07:24:09;12.65;;;8.75;;
5981;SDS011;3018;48.730;9.336;2022-11-13T07:26:35;47.17;;;9.93;;
5981;SDS011;3018;48.730;9.336;2022-11-13T07:29:01;12.60;;;9.27;;
5981;SDS011;3018;48.730;9.336;2022-11-13T07:31:27;30.40;;;9.45;;
5981;SDS011;3018;48.730;9.336;2022-11-13T07:33:55;13.38;;;8.63;;
5981;SDS011;3018;48.730;9.336;2022-11-13T07:36:21;33.67;;;10.45;;
5981;SDS011;3018;48.730;9.336;2022-11-13T07:38:47;13.10;;;9.55;;
5981;SDS011;3018;48.730;9.336;2022-11-13T07:41:14;10.82;;;8.98;;
5981;SDS011;3018;48.730;9.336;2022-11-13T07:43:40;12.35;;;8.85;;
5981;SDS011;3018;48.730;9.336;2022-11-13T07:46:06;19.63;;;9.70;;
5981;SDS011;3018;48.730;9.336;2022-11-13T07:48:32;22.65;;;9.15;;
5981;SDS011;3018;48.730;9.336;2022-11-13T07:51:01;16.15;;;9.70;;
5981;SDS011;3018;48.730;9.336;2022-11-13T07:53:27;12.13;;;9.35;;
5981;SDS011;3018;48.730;9.336;2022-11-13T07:55:54;10.90;;;9.70;;
5981;SDS011;3018;48.730;9.336;2022-11-13T07:58:20;14.30;;;9.13;;
5981;SDS011;3018;48.730;9.336;2022-11-13T08:00:46;9.30;;;8.40;;
5981;SDS011;3018;48.730;9.336;2022-11-13T08:03:14;9.25;;;8.30;;
5981;SDS011;3018;48.730;9.336;2022-11-13T08:05:41;9.52;;;8.63;;
5981;SDS011;3018;48.730;9.336;2022-11-13T08:08:11;8.90;;;8.10;;
5981;SDS011;3018;48.730;9.336;2022-11-13T08:10:37;14.85;;;9.35;;
5981;SDS011;3018;48.730;9.336;2022-11-13T08:13:06;10.00;;;9.00;;
5981;SDS011;3018;48.730;9.336;2022-11-13T08:15:32;9.93;;;9.02;;
5981;SDS011;3018;48.730;9.336;2022-11-13T08:18:00;20.02;;;9.88;;
5981;SDS011;3018;48.730;9.336;2022-11-13T08:20:27;10.20;;;9.30;;
5981;SDS011;3018;48.730;9.336;2022-11-13T08:22:55;10.52;;;9.50;;
5981;SDS011;3018;48.730;9.336;2022-11-13T08:25:23;11.88;;;9.85;;
5981;SDS011;3018;48.730;9.336;2022-11-13T08:27:50;15.98;;;9.70;;
5981;SDS011;3018;48.730;9.336;2022-11-13T08:30:17;24.17;;;10.25;;
5981;SDS011;3018;48.730;9.336;2022-11-13T08:32:43;17.25;;;10.27;;
5981;SDS011;3018;48.730;9.336;2022-11-13T08:35:09;19.40;;;10.85;;
5981;SDS011;3018;48.730;9.336;2022-11-13T08:37:36;12.13;;;10.45;;
5981;SDS011;3018;48.730;9.336;2022-11-13T08:40:02;13.00;;;10.68;;
5981;SDS011;3018;48.730;9.336;2022-11-13T08:42:30;16.60;;;11.95;;
5981;SDS011;3018;48.730;9.336;2022-11-13T08:44:56;13.30;;;10.15;;
5981;SDS011;3018;48.730;9.336;2022-11-13T08:47:23;27.02;;;12.07;;
5981;SDS011;3018;48.730;9.336;2022-11-13T08:49:50;24.83;;;11.98;;
5981;SDS011;3018;48.730;9.336;2022-11-13T08:52:16;12.57;;;11.25;;
5981;SDS011;3018;48.730;9.336;2022-11-13T08:54:42;14.88;;;11.82;;
5981;SDS011;3018;48.730;9.336;2022-11-13T08:57:08;13.88;;;11.43;;
5981;SDS011;3018;48.730;9.336;2022-11-13T08:59:36;13.10;;;11.40;;
5981;SDS011;3018;48.730;9.336;2022-11-13T09:02:02;16.52;;;12.25;;
5981;SDS011;3018;48.730;9.336;2022-11-13T09:04:29;15.30;;;12.75;;
5981;SDS011;3018;48.730;9.336;2022-11-13T09:06:55;20.42;;;13.38;;
5981;SDS011;3018;48.730;9.336;2022-11-13T09:09:21;22.02;;;12.50;;
5981;SDS011;3018;48.730;9.336;2022-11-13T09:11:48;12.80;;;11.50;;
5981;SDS011;3018;48.730;9.336;2022-11-13T09:14:14;13.48;;;12.10;;
5981;SDS011;3018;48.730;9.336;2022-11-13T09:16:42;15.00;;;12.48;;
5981;SDS011;3018;48.730;9.336;2022-11-13T09:19:08;13.63;;;12.10;;
5981;SDS011;3018;48.730;9.336;2022-11-13T09:21:34;16.27;;;13.48;;
5981;SDS011;3018;48.730;9.336;2022-11-13T09:24:01;14.25;;;12.27;;
5981;SDS011;3018;48.730;9.336;2022-11-13T09:26:27;13.75;;;12.13;;
5981;SDS011;3018;48.730;9.336;2022-11-13T09:28:53;15.60;;;12.50;;
5981;SDS011;3018;48.730;9.336;2022-11-13T09:31:20;14.48;;;12.07;;
5981;SDS011;3018;48.730;9.336;2022-11-13T09:33:47;14.98;;;13.35;;
5981;SDS011;3018;48.730;9.336;2022-11-13T09:36:14;12.65;;;11.30;;
5981;SDS011;3018;48.730;9.336;2022-11-13T09:38:41;14.50;;;12.57;;
5981;SDS011;3018;48.730;9.336;2022-11-13T09:41:08;14.73;;;12.32;;
5981;SDS011;3018;48.730;9.336;2022-11-13T09:43:41;14.30;;;12.40;;
5981;SDS011;3018;48.730;9.336;2022-11-13T09:46:11;14.43;;;12.10;;
5981;SDS011;3018;48.730;9.336;2022-11-13T09:48:41;13.93;;;12.43;;
5981;SDS011;3018;48.730;9.336;2022-11-13T09:51:12;13.13;;;11.80;;
5981;SDS011;3018;48.730;9.336;2022-11-13T09:53:39;15.23;;;13.60;;
5981;SDS011;3018;48.730;9.336;2022-11-13T09:56:18;13.48;;;12.05;;
5981;SDS011;3018;48.730;9.336;2022-11-13T09:58:47;14.05;;;12.43;;
5981;SDS011;3018;48.730;9.336;2022-11-13T10:01:15;13.40;;;12.05;;
5981;SDS011;3018;48.730;9.336;2022-11-13T10:03:46;12.98;;;11.68;;
5981;SDS011;3018;48.730;9.336;2022-11-13T10:06:20;11.93;;;10.82;;
5981;SDS011;3018;48.730;9.336;2022-11-13T10:08:50;13.27;;;11.98;;
5981;SDS011;3018;48.730;9.336;2022-11-13T10:11:20;12.18;;;10.80;;
5981;SDS011;3018;48.730;9.336;2022-11-13T10:13:49;12.18;;;10.98;;
5981;SDS011;3018;48.730;9.336;2022-11-13T10:16:19;12.98;;;11.75;;
5981;SDS011;3018;48.730;9.336;2022-11-13T10:18:49;11.75;;;10.52;;
5981;SDS011;3018;48.730;9.336;2022-11-13T10:21:17;12.70;;;11.50;;
5981;SDS011;3018;48.730;9.336;2022-11-13T10:23:49;15.57;;;12.77;;
5981;SDS011;3018;48.730;9.336;2022-11-13T10:26:17;12.35;;;11.25;;
5981;SDS011;3018;48.730;9.336;2022-11-13T10:28:44;12.50;;;11.30;;
5981;SDS011;3018;48.730;9.336;2022-11-13T10:31:10;11.88;;;10.77;;
5981;SDS011;3018;48.730;9.336;2022-11-13T10:33:37;12.52;;;11.32;;
5981;SDS011;3018;48.730;9.336;2022-11-13T10:36:07;11.63;;;10.52;;
5981;SDS011;3018;48.730;9.336;2022-11-13T10:38:39;12.90;;;11.65;;
5981;SDS011;3018;48.730;9.336;2022-11-13T10:41:10;14.57;;;11.77;;
5981;SDS011;3018;48.730;9.336;2022-11-13T10:46:21;13.20;;;11.63;;
5981;SDS011;3018;48.730;9.336;2022-11-13T10:48:49;12.52;;;11.35;;
5981;SDS011;3018;48.730;9.336;2022-11-13T10:51:20;12.85;;;11.30;;
5981;SDS011;3018;48.730;9.336;2022-11-13T10:53:47;11.95;;;10.77;;
5981;SDS011;3018;48.730;9.336;2022-11-13T10:56:20;11.90;;;10.80;;
5981;SDS011;3018;48.730;9.336;2022-11-13T10:58:58;10.25;;;9.45;;
5981;SDS011;3018;48.730;9.336;2022-11-13T11:01:24;11.75;;;10.65;;
5981;SDS011;3018;48.730;9.336;2022-11-13T11:03:51;12.15;;;11.00;;
5981;SDS011;3018;48.730;9.336;2022-11-13T11:06:17;11.77;;;10.57;;
5981;SDS011;3018;48.730;9.336;2022-11-13T11:08:43;12.13;;;11.02;;
5981;SDS011;3018;48.730;9.336;2022-11-13T11:11:12;11.77;;;10.77;;
5981;SDS011;3018;48.730;9.336;2022-11-13T11:14:04;11.35;;;10.32;;
5981;SDS011;3018;48.730;9.336;2022-11-13T11:16:34;11.93;;;10.82;;
5981;SDS011;3018;48.730;9.336;2022-11-13T11:19:03;11.27;;;10.18;;
5981;SDS011;3018;48.730;9.336;2022-11-13T11:21:31;10.95;;;9.85;;
5981;SDS011;3018;48.730;9.336;2022-11-13T11:23:59;10.65;;;9.60;;
5981;SDS011;3018;48.730;9.336;2022-11-13T11:26:28;10.15;;;9.30;;
5981;SDS011;3018;48.730;9.336;2022-11-13T11:29:01;10.70;;;9.77;;
5981;SDS011;3018;48.730;9.336;2022-11-13T11:31:31;10.57;;;9.57;;
5981;SDS011;3018;48.730;9.336;2022-11-13T11:34:01;11.30;;;10.02;;
5981;SDS011;3018;48.730;9.336;2022-11-13T11:36:31;9.93;;;9.05;;
5981;SDS011;3018;48.730;9.336;2022-11-13T11:39:00;10.90;;;9.88;;
5981;SDS011;3018;48.730;9.336;2022-11-13T11:41:29;10.70;;;9.70;;
5981;SDS011;3018;48.730;9.336;2022-11-13T11:43:58;10.15;;;9.23;;
5981;SDS011;3018;48.730;9.336;2022-11-13T11:46:26;10.95;;;9.98;;
5981;SDS011;3018;48.730;9.336;2022-11-13T11:48:55;10.52;;;9.52;;
5981;SDS011;3018;48.730;9.336;2022-11-13T11:51:23;10.10;;;9.20;;
5981;SDS011;3018;48.730;9.336;2022-11-13T11:53:54;10.07;;;9.07;;
5981;SDS011;3018;48.730;9.336;2022-11-13T11:56:23;10.02;;;9.10;;
5981;SDS011;3018;48.730;9.336;2022-11-13T11:58:55;9.85;;;8.95;;
5981;SDS011;3018;48.730;9.336;2022-11-13T12:01:29;9.95;;;9.05;;
5981;SDS011;3018;48.730;9.336;2022-11-13T12:04:05;10.38;;;9.30;;
5981;SDS011;3018;48.730;9.336;2022-11-13T12:06:37;9.70;;;8.90;;
5981;SDS011;3018;48.730;9.336;2022-11-13T12:09:07;10.43;;;9.43;;
5981;SDS011;3018;48.730;9.336;2022-11-13T12:11:36;9.65;;;8.77;;
5981;SDS011;3018;48.730;9.336;2022-11-13T12:14:07;9.65;;;8.75;;
5981;SDS011;3018;48.730;9.336;2022-11-13T12:16:37;9.63;;;8.82;;
5981;SDS011;3018;48.730;9.336;2022-11-13T12:19:10;10.43;;;9.43;;
5981;SDS011;3018;48.730;9.336;2022-11-13T12:21:41;9.25;;;8.45;;
5981;SDS011;3018;48.730;9.336;2022-11-13T12:24:15;9.32;;;8.52;;
5981;SDS011;3018;48.730;9.336;2022-11-13T12:26:45;10.20;;;9.20;;
5981;SDS011;3018;48.730;9.336;2022-11-13T12:29:16;9.45;;;8.65;;
5981;SDS011;3018;48.730;9.336;2022-11-13T12:31:47;9.65;;;8.75;;
5981;SDS011;3018;48.730;9.336;2022-11-13T12:34:20;9.57;;;8.77;;
5981;SDS011;3018;48.730;9.336;2022-11-13T12:36:48;9.20;;;8.43;;
5981;SDS011;3018;48.730;9.336;2022-11-13T12:39:24;9.48;;;8.57;;
5981;SDS011;3018;48.730;9.336;2022-11-13T12:41:52;9.27;;;8.48;;
5981;SDS011;3018;48.730;9.336;2022-11-13T12:44:23;8.93;;;8.13;;
5981;SDS011;3018;48.730;9.336;2022-11-13T12:46:50;9.52;;;8.63;;
5981;SDS011;3018;48.730;9.336;2022-11-13T12:49:31;9.23;;;8.43;;
5981;SDS011;3018;48.730;9.336;2022-11-13T12:51:59;8.98;;;8.18;;
5981;SDS011;3018;48.730;9.336;2022-11-13T12:54:26;9.05;;;8.15;;
5981;SDS011;3018;48.730;9.336;2022-11-13T12:57:03;9.65;;;8.77;;
5981;SDS011;3018;48.730;9.336;2022-11-13T12:59:31;9.30;;;8.48;;
5981;SDS011;3018;48.730;9.336;2022-11-13T13:01:59;9.55;;;8.68;;
5981;SDS011;3018;48.730;9.336;2022-11-13T13:04:39;9.65;;;8.68;;
5981;SDS011;3018;48.730;9.336;2022-11-13T13:07:12;10.02;;;9.13;;
5981;SDS011;3018;48.730;9.336;2022-11-13T13:09:51;10.02;;;9.13;;
5981;SDS011;3018;48.730;9.336;2022-11-13T13:12:23;10.80;;;9.73;;
5981;SDS011;3018;48.730;9.336;2022-11-13T13:15:00;11.05;;;9.02;;
5981;SDS011;3018;48.730;9.336;2022-11-13T13:17:28;10.02;;;9.07;;
5981;SDS011;3018;48.730;9.336;2022-11-13T13:19:59;10.48;;;9.57;;
5981;SDS011;3018;48.730;9.336;2022-11-13T13:22:27;10.10;;;9.20;;
5981;SDS011;3018;48.730;9.336;2022-11-13T13:25:00;10.60;;;9.50;;
5981;SDS011;3018;48.730;9.336;2022-11-13T13:27:27;10.82;;;9.73;;
5981;SDS011;3018;48.730;9.336;2022-11-13T13:29:54;10.27;;;9.30;;
5981;SDS011;3018;48.730;9.336;2022-11-13T13:32:21;10.35;;;9.35;;
5981;SDS011;3018;48.730;9.336;2022-11-13T13:34:53;11.48;;;10.27;;
5981;SDS011;3018;48.730;9.336;2022-11-13T13:37:25;10.90;;;9.90;;
5981;SDS011;3018;48.730;9.336;2022-11-13T13:39:56;10.93;;;9.82;;
5981;SDS011;3018;48.730;9.336;2022-11-13T13:42:35;11.02;;;9.93;;
5981;SDS011;3018;48.730;9.336;2022-11-13T13:45:13;11.30;;;10.00;;
5981;SDS011;3018;48.730;9.336;2022-11-13T13:47:43;10.80;;;9.73;;
5981;SDS011;3018;48.730;9.336;2022-11-13T13:50:13;10.90;;;9.80;;
5981;SDS011;3018;48.730;9.336;2022-11-13T13:52:41;10.73;;;9.73;;
5981;SDS011;3018;48.730;9.336;2022-11-13T13:55:14;10.90;;;9.85;;
5981;SDS011;3018;48.730;9.336;2022-11-13T13:57:41;10.70;;;9.65;;
5981;SDS011;3018;48.730;9.336;2022-11-13T14:00:09;9.90;;;9.00;;
5981;SDS011;3018;48.730;9.336;2022-11-13T14:02:43;10.45;;;9.45;;
5981;SDS011;3018;48.730;9.336;2022-11-13T14:05:15;9.90;;;9.00;;
5981;SDS011;3018;48.730;9.336;2022-11-13T14:07:45;10.63;;;9.18;;
5981;SDS011;3018;48.730;9.336;2022-11-13T14:10:13;11.40;;;9.90;;
5981;SDS011;3018;48.730;9.336;2022-11-13T14:12:40;11.23;;;10.00;;
5981;SDS011;3018;48.730;9.336;2022-11-13T14:15:15;10.95;;;9.73;;
5981;SDS011;3018;48.730;9.336;2022-11-13T14:17:45;11.20;;;8.77;;
5981;SDS011;3018;48.730;9.336;2022-11-13T14:20:11;12.77;;;9.65;;
5981;SDS011;3018;48.730;9.336;2022-11-13T14:22:38;10.90;;;9.90;;
5981;SDS011;3018;48.730;9.336;2022-11-13T14:25:20;13.70;;;9.90;;
5981;SDS011;3018;48.730;9.336;2022-11-13T14:27:47;10.60;;;9.60;;
5981;SDS011;3018;48.730;9.336;2022-11-13T14:30:21;12.43;;;10.95;;
5981;SDS011;3018;48.730;9.336;2022-11-13T14:32:48;9.85;;;8.95;;
5981;SDS011;3018;48.730;9.336;2022-11-13T14:35:17;11.50;;;9.63;;
5981;SDS011;3018;48.730;9.336;2022-11-13T14:37:44;10.93;;;9.82;;
5981;SDS011;3018;48.730;9.336;2022-11-13T14:40:17;12.90;;;9.30;;
5981;SDS011;3018;48.730;9.336;2022-11-13T14:42:45;10.20;;;8.93;;
5981;SDS011;3018;48.730;9.336;2022-11-13T14:45:13;10.02;;;9.00;;
5981;SDS011;3018;48.730;9.336;2022-11-13T14:47:40;11.38;;;8.90;;
5981;SDS011;3018;48.730;9.336;2022-11-13T14:50:08;13.25;;;10.23;;
5981;SDS011;3018;48.730;9.336;2022-11-13T14:52:34;13.63;;;10.48;;
5981;SDS011;3018;48.730;9.336;2022-11-13T14:55:01;12.30;;;9.80;;
5981;SDS011;3018;48.730;9.336;2022-11-13T14:57:29;11.60;;;10.00;;
5981;SDS011;3018;48.730;9.336;2022-11-13T14:59:56;11.25;;;10.07;;
5981;SDS011;3018;48.730;9.336;2022-11-13T15:02:22;11.13;;;9.93;;
5981;SDS011;3018;48.730;9.336;2022-11-13T15:04:48;11.70;;;10.40;;